sensor_id;sensor_type;location;lat;lon;timestamp;P1;durP1;ratioP1;P2;durP2;ratioP2
51214;SDS011;41093;47.444;19.134;2022-09-09T00:05:00;2.75;;;2.55;;
51214;SDS011;41093;47.444;19.134;2022-09-09T00:07:34;2.67;;;2.47;;
51214;SDS011;41093;47.444;19.134;2022-09-09T00:10:17;4.15;;;2.97;;
51214;SDS011;41093;47.444;19.134;2022-09-09T00:20:48;2.63;;;2.35;;
51214;SDS011;41093;47.444;19.134;2022-09-09T00:23:25;3.00;;;2.67;;
51214;SDS011;41093;47.444;19.134;2022-09-09T00:31:35;3.22;;;2.78;;
51214;SDS011;41093;47.444;19.134;2022-09-09T00:34:15;2.95;;;2.70;;
51214;SDS011;41093;47.444;19.134;2022-09-09T00:36:46;2.50;;;2.40;;
51214;SDS011;41093;47.444;19.134;2022-09-09T00:39:36;2.58;;;2.38;;
51214;SDS011;41093;47.444;19.134;2022-09-09T00:50:48;2.83;;;2.63;;
51214;SDS011;41093;47.444;19.134;2022-09-09T00:53:24;2.97;;;2.75;;
51214;SDS011;41093;47.444;19.134;2022-09-09T00:56:13;3.40;;;3.10;;
51214;SDS011;41093;47.444;19.134;2022-09-09T01:01:57;3.10;;;2.90;;
51214;SDS011;41093;47.444;19.134;2022-09-09T01:04:29;3.10;;;2.90;;
51214;SDS011;41093;47.444;19.134;2022-09-09T01:07:07;3.10;;;2.90;;
51214;SDS011;41093;47.444;19.134;2022-09-09T01:15:20;3.15;;;2.95;;
51214;SDS011;41093;47.444;19.134;2022-09-09T01:26:48;4.15;;;3.85;;
51214;SDS011;41093;47.444;19.134;2022-09-09T01:31:21;4.35;;;3.92;;
51214;SDS011;41093;47.444;19.134;2022-09-09T01:33:53;4.75;;;4.28;;
51214;SDS011;41093;47.444;19.134;2022-09-09T01:36:21;4.70;;;4.30;;
51214;SDS011;41093;47.444;19.134;2022-09-09T01:38:55;4.53;;;4.10;;
51214;SDS011;41093;47.444;19.134;2022-09-09T01:41:21;4.50;;;4.20;;
51214;SDS011;41093;47.444;19.134;2022-09-09T01:43:47;5.60;;;3.92;;
51214;SDS011;41093;47.444;19.134;2022-09-09T01:46:13;4.55;;;4.22;;
51214;SDS011;41093;47.444;19.134;2022-09-09T01:48:40;4.70;;;4.35;;
51214;SDS011;41093;47.444;19.134;2022-09-09T01:51:07;4.70;;;4.30;;
51214;SDS011;41093;47.444;19.134;2022-09-09T01:53:35;4.28;;;3.97;;
51214;SDS011;41093;47.444;19.134;2022-09-09T02:01:23;4.60;;;4.30;;
51214;SDS011;41093;47.444;19.134;2022-09-09T02:04:15;5.38;;;4.97;;
51214;SDS011;41093;47.444;19.134;2022-09-09T02:06:53;4.47;;;4.18;;
51214;SDS011;41093;47.444;19.134;2022-09-09T02:09:23;4.82;;;4.53;;
51214;SDS011;41093;47.444;19.134;2022-09-09T02:11:51;4.60;;;4.20;;
51214;SDS011;41093;47.444;19.134;2022-09-09T02:14:27;4.65;;;4.35;;
51214;SDS011;41093;47.444;19.134;2022-09-09T02:17:01;5.10;;;4.63;;
51214;SDS011;41093;47.444;19.134;2022-09-09T02:19:34;5.43;;;4.55;;
51214;SDS011;41093;47.444;19.134;2022-09-09T02:22:04;5.25;;;4.85;;
51214;SDS011;41093;47.444;19.134;2022-09-09T02:24:32;5.10;;;4.70;;
51214;SDS011;41093;47.444;19.134;2022-09-09T02:27:01;5.05;;;4.72;;
51214;SDS011;41093;47.444;19.134;2022-09-09T02:29:35;5.45;;;4.97;;
51214;SDS011;41093;47.444;19.134;2022-09-09T02:32:05;5.70;;;5.22;;
51214;SDS011;41093;47.444;19.134;2022-09-09T02:34:34;5.80;;;5.35;;
51214;SDS011;41093;47.444;19.134;2022-09-09T02:37:01;5.65;;;5.18;;
51214;SDS011;41093;47.444;19.134;2022-09-09T02:39:29;5.60;;;5.20;;
51214;SDS011;41093;47.444;19.134;2022-09-09T02:41:54;6.82;;;5.90;;
51214;SDS011;41093;47.444;19.134;2022-09-09T02:44:22;5.80;;;5.40;;
51214;SDS011;41093;47.444;19.134;2022-09-09T02:54:30;6.57;;;5.97;;
51214;SDS011;41093;47.444;19.134;2022-09-09T02:57:00;5.38;;;4.97;;
51214;SDS011;41093;47.444;19.134;2022-09-09T02:59:27;5.40;;;5.00;;
51214;SDS011;41093;47.444;19.134;2022-09-09T03:01:54;4.13;;;3.85;;
51214;SDS011;41093;47.444;19.134;2022-09-09T03:04:20;3.88;;;3.58;;
51214;SDS011;41093;47.444;19.134;2022-09-09T03:06:46;3.15;;;2.92;;
51214;SDS011;41093;47.444;19.134;2022-09-09T03:09:12;3.30;;;3.00;;
51214;SDS011;41093;47.444;19.134;2022-09-09T03:11:38;2.90;;;2.70;;
51214;SDS011;41093;47.444;19.134;2022-09-09T03:14:10;3.35;;;2.60;;
51214;SDS011;41093;47.444;19.134;2022-09-09T03:16:36;3.13;;;2.83;;
51214;SDS011;41093;47.444;19.134;2022-09-09T03:19:02;3.15;;;2.88;;
51214;SDS011;41093;47.444;19.134;2022-09-09T03:21:28;2.80;;;2.60;;
51214;SDS011;41093;47.444;19.134;2022-09-09T03:23:54;4.03;;;3.10;;
51214;SDS011;41093;47.444;19.134;2022-09-09T03:26:20;3.53;;;3.22;;
51214;SDS011;41093;47.444;19.134;2022-09-09T03:28:46;3.70;;;3.30;;
51214;SDS011;41093;47.444;19.134;2022-09-09T03:31:12;3.30;;;2.90;;
51214;SDS011;41093;47.444;19.134;2022-09-09T03:33:38;3.25;;;2.95;;
51214;SDS011;41093;47.444;19.134;2022-09-09T03:36:04;3.47;;;3.28;;
51214;SDS011;41093;47.444;19.134;2022-09-09T03:38:31;3.35;;;3.15;;
51214;SDS011;41093;47.444;19.134;2022-09-09T03:40:57;2.83;;;2.70;;
51214;SDS011;41093;47.444;19.134;2022-09-09T03:43:23;3.60;;;3.30;;
51214;SDS011;41093;47.444;19.134;2022-09-09T03:45:50;4.03;;;3.60;;
51214;SDS011;41093;47.444;19.134;2022-09-09T03:48:17;4.03;;;3.70;;
51214;SDS011;41093;47.444;19.134;2022-09-09T03:50:44;4.68;;;3.97;;
51214;SDS011;41093;47.444;19.134;2022-09-09T03:53:10;4.40;;;4.10;;
51214;SDS011;41093;47.444;19.134;2022-09-09T03:55:37;4.50;;;4.20;;
51214;SDS011;41093;47.444;19.134;2022-09-09T03:58:03;4.32;;;4.03;;
51214;SDS011;41093;47.444;19.134;2022-09-09T04:00:29;4.30;;;4.03;;
51214;SDS011;41093;47.444;19.134;2022-09-09T04:02:55;4.57;;;4.28;;
51214;SDS011;41093;47.444;19.134;2022-09-09T04:05:21;4.85;;;4.47;;
51214;SDS011;41093;47.444;19.134;2022-09-09T04:07:47;5.95;;;4.90;;
51214;SDS011;41093;47.444;19.134;2022-09-09T04:10:14;4.70;;;4.30;;
51214;SDS011;41093;47.444;19.134;2022-09-09T04:12:40;5.60;;;5.15;;
51214;SDS011;41093;47.444;19.134;2022-09-09T04:15:15;5.72;;;5.32;;
51214;SDS011;41093;47.444;19.134;2022-09-09T04:17:43;5.40;;;5.00;;
51214;SDS011;41093;47.444;19.134;2022-09-09T04:20:09;5.68;;;5.18;;
51214;SDS011;41093;47.444;19.134;2022-09-09T04:22:37;5.85;;;5.45;;
51214;SDS011;41093;47.444;19.134;2022-09-09T04:25:06;6.45;;;5.63;;
51214;SDS011;41093;47.444;19.134;2022-09-09T04:27:35;6.00;;;5.53;;
51214;SDS011;41093;47.444;19.134;2022-09-09T04:30:01;6.03;;;5.63;;
51214;SDS011;41093;47.444;19.134;2022-09-09T04:32:28;7.57;;;5.93;;
51214;SDS011;41093;47.444;19.134;2022-09-09T04:34:54;6.68;;;5.90;;
51214;SDS011;41093;47.444;19.134;2022-09-09T04:37:20;6.70;;;6.18;;
51214;SDS011;41093;47.444;19.134;2022-09-09T04:39:46;11.55;;;6.78;;
51214;SDS011;41093;47.444;19.134;2022-09-09T04:42:12;9.25;;;6.55;;
51214;SDS011;41093;47.444;19.134;2022-09-09T04:44:38;6.35;;;5.82;;
51214;SDS011;41093;47.444;19.134;2022-09-09T04:47:05;6.35;;;5.85;;
51214;SDS011;41093;47.444;19.134;2022-09-09T04:49:31;6.63;;;6.13;;
51214;SDS011;41093;47.444;19.134;2022-09-09T04:51:58;6.97;;;6.38;;
51214;SDS011;41093;47.444;19.134;2022-09-09T04:54:24;6.85;;;6.28;;
51214;SDS011;41093;47.444;19.134;2022-09-09T04:56:50;7.70;;;6.18;;
51214;SDS011;41093;47.444;19.134;2022-09-09T04:59:16;8.23;;;5.50;;
51214;SDS011;41093;47.444;19.134;2022-09-09T05:01:42;5.47;;;5.00;;
51214;SDS011;41093;47.444;19.134;2022-09-09T05:04:09;5.80;;;5.25;;
51214;SDS011;41093;47.444;19.134;2022-09-09T05:06:35;5.38;;;4.40;;
51214;SDS011;41093;47.444;19.134;2022-09-09T05:09:02;4.93;;;4.32;;
51214;SDS011;41093;47.444;19.134;2022-09-09T05:11:29;4.30;;;4.00;;
51214;SDS011;41093;47.444;19.134;2022-09-09T05:13:55;4.30;;;3.90;;
51214;SDS011;41093;47.444;19.134;2022-09-09T05:16:22;5.97;;;4.00;;
51214;SDS011;41093;47.444;19.134;2022-09-09T05:18:48;7.40;;;4.15;;
51214;SDS011;41093;47.444;19.134;2022-09-09T05:21:16;3.38;;;3.17;;
51214;SDS011;41093;47.444;19.134;2022-09-09T05:23:43;3.40;;;3.20;;
51214;SDS011;41093;47.444;19.134;2022-09-09T05:26:15;4.28;;;3.10;;
51214;SDS011;41093;47.444;19.134;2022-09-09T05:28:41;2.70;;;2.50;;
51214;SDS011;41093;47.444;19.134;2022-09-09T05:31:09;3.00;;;2.53;;
51214;SDS011;41093;47.444;19.134;2022-09-09T05:33:37;3.83;;;2.25;;
51214;SDS011;41093;47.444;19.134;2022-09-09T05:36:08;2.13;;;2.03;;
51214;SDS011;41093;47.444;19.134;2022-09-09T05:38:35;2.97;;;1.67;;
51214;SDS011;41093;47.444;19.134;2022-09-09T05:41:03;1.27;;;1.17;;
51214;SDS011;41093;47.444;19.134;2022-09-09T05:43:29;1.42;;;1.20;;
51214;SDS011;41093;47.444;19.134;2022-09-09T05:46:04;3.75;;;1.40;;
51214;SDS011;41093;47.444;19.134;2022-09-09T05:48:35;1.10;;;1.05;;
51214;SDS011;41093;47.444;19.134;2022-09-09T05:51:05;2.78;;;1.17;;
51214;SDS011;41093;47.444;19.134;2022-09-09T05:53:34;2.30;;;1.10;;
51214;SDS011;41093;47.444;19.134;2022-09-09T05:56:11;2.45;;;1.35;;
51214;SDS011;41093;47.444;19.134;2022-09-09T05:58:45;1.50;;;1.13;;
51214;SDS011;41093;47.444;19.134;2022-09-09T06:01:15;0.80;;;0.80;;
51214;SDS011;41093;47.444;19.134;2022-09-09T06:03:43;2.03;;;1.25;;
51214;SDS011;41093;47.444;19.134;2022-09-09T06:06:11;2.00;;;1.10;;
51214;SDS011;41093;47.444;19.134;2022-09-09T06:08:40;1.63;;;1.00;;
51214;SDS011;41093;47.444;19.134;2022-09-09T06:11:12;1.13;;;0.77;;
51214;SDS011;41093;47.444;19.134;2022-09-09T06:13:40;1.58;;;1.25;;
51214;SDS011;41093;47.444;19.134;2022-09-09T06:16:08;1.40;;;0.90;;
51214;SDS011;41093;47.444;19.134;2022-09-09T06:18:36;2.65;;;1.13;;
51214;SDS011;41093;47.444;19.134;2022-09-09T06:21:04;2.22;;;1.30;;
51214;SDS011;41093;47.444;19.134;2022-09-09T06:23:32;1.55;;;1.17;;
51214;SDS011;41093;47.444;19.134;2022-09-09T06:26:02;4.90;;;1.35;;
51214;SDS011;41093;47.444;19.134;2022-09-09T06:28:37;1.73;;;1.30;;
51214;SDS011;41093;47.444;19.134;2022-09-09T06:31:06;5.30;;;1.35;;
51214;SDS011;41093;47.444;19.134;2022-09-09T06:33:34;1.13;;;1.00;;
51214;SDS011;41093;47.444;19.134;2022-09-09T06:36:04;1.55;;;0.93;;
51214;SDS011;41093;47.444;19.134;2022-09-09T06:38:30;2.75;;;1.10;;
51214;SDS011;41093;47.444;19.134;2022-09-09T06:40:57;1.10;;;1.00;;
51214;SDS011;41093;47.444;19.134;2022-09-09T06:43:25;3.30;;;0.70;;
51214;SDS011;41093;47.444;19.134;2022-09-09T06:48:24;2.05;;;1.20;;
51214;SDS011;41093;47.444;19.134;2022-09-09T06:51:06;0.70;;;0.70;;
51214;SDS011;41093;47.444;19.134;2022-09-09T06:53:34;1.23;;;0.93;;
51214;SDS011;41093;47.444;19.134;2022-09-09T06:58:48;6.75;;;1.10;;
51214;SDS011;41093;47.444;19.134;2022-09-09T07:01:16;5.03;;;1.80;;
51214;SDS011;41093;47.444;19.134;2022-09-09T07:03:48;3.25;;;1.40;;
51214;SDS011;41093;47.444;19.134;2022-09-09T07:06:25;1.00;;;0.90;;
51214;SDS011;41093;47.444;19.134;2022-09-09T07:08:53;1.50;;;1.00;;
51214;SDS011;41093;47.444;19.134;2022-09-09T07:11:21;1.50;;;1.00;;
51214;SDS011;41093;47.444;19.134;2022-09-09T07:13:49;3.53;;;0.95;;
51214;SDS011;41093;47.444;19.134;2022-09-09T07:16:18;1.67;;;0.90;;
51214;SDS011;41093;47.444;19.134;2022-09-09T07:18:45;1.58;;;1.00;;
51214;SDS011;41093;47.444;19.134;2022-09-09T07:21:12;1.48;;;1.10;;
51214;SDS011;41093;47.444;19.134;2022-09-09T07:23:39;2.17;;;1.20;;
51214;SDS011;41093;47.444;19.134;2022-09-09T07:26:16;2.20;;;1.27;;
51214;SDS011;41093;47.444;19.134;2022-09-09T07:28:46;3.28;;;1.30;;
51214;SDS011;41093;47.444;19.134;2022-09-09T07:31:14;2.53;;;1.20;;
51214;SDS011;41093;47.444;19.134;2022-09-09T07:33:45;1.10;;;1.05;;
51214;SDS011;41093;47.444;19.134;2022-09-09T07:36:13;4.32;;;1.33;;
51214;SDS011;41093;47.444;19.134;2022-09-09T07:38:48;4.22;;;1.52;;
51214;SDS011;41093;47.444;19.134;2022-09-09T07:41:20;1.70;;;1.48;;
51214;SDS011;41093;47.444;19.134;2022-09-09T07:43:51;1.73;;;1.25;;
51214;SDS011;41093;47.444;19.134;2022-09-09T07:46:19;1.60;;;1.50;;
51214;SDS011;41093;47.444;19.134;2022-09-09T07:48:51;4.60;;;1.90;;
51214;SDS011;41093;47.444;19.134;2022-09-09T07:51:25;4.50;;;2.10;;
51214;SDS011;41093;47.444;19.134;2022-09-09T07:54:00;2.00;;;1.73;;
51214;SDS011;41093;47.444;19.134;2022-09-09T07:56:28;2.60;;;1.80;;
51214;SDS011;41093;47.444;19.134;2022-09-09T07:58:56;3.15;;;1.88;;
51214;SDS011;41093;47.444;19.134;2022-09-09T08:03:57;2.28;;;2.00;;
51214;SDS011;41093;47.444;19.134;2022-09-09T08:06:30;1.80;;;1.70;;
51214;SDS011;41093;47.444;19.134;2022-09-09T08:08:58;1.67;;;1.60;;
51214;SDS011;41093;47.444;19.134;2022-09-09T08:11:28;3.03;;;1.90;;
51214;SDS011;41093;47.444;19.134;2022-09-09T08:13:55;2.03;;;1.85;;
51214;SDS011;41093;47.444;19.134;2022-09-09T08:16:25;2.15;;;1.73;;
51214;SDS011;41093;47.444;19.134;2022-09-09T08:18:53;2.47;;;2.10;;
51214;SDS011;41093;47.444;19.134;2022-09-09T08:21:26;1.67;;;1.58;;
51214;SDS011;41093;47.444;19.134;2022-09-09T08:26:24;2.60;;;1.83;;
51214;SDS011;41093;47.444;19.134;2022-09-09T08:28:55;3.97;;;2.10;;
51214;SDS011;41093;47.444;19.134;2022-09-09T08:31:23;3.92;;;1.60;;
51214;SDS011;41093;47.444;19.134;2022-09-09T08:33:52;1.50;;;1.35;;
51214;SDS011;41093;47.444;19.134;2022-09-09T08:36:20;2.22;;;1.33;;
51214;SDS011;41093;47.444;19.134;2022-09-09T08:38:48;2.03;;;1.50;;
51214;SDS011;41093;47.444;19.134;2022-09-09T08:52:16;1.55;;;1.50;;
51214;SDS011;41093;47.444;19.134;2022-09-09T08:54:56;1.30;;;1.30;;
51214;SDS011;41093;47.444;19.134;2022-09-09T08:57:29;1.40;;;1.30;;
51214;SDS011;41093;47.444;19.134;2022-09-09T08:59:57;2.17;;;1.40;;
51214;SDS011;41093;47.444;19.134;2022-09-09T09:02:31;2.35;;;1.48;;
51214;SDS011;41093;47.444;19.134;2022-09-09T09:10:29;1.65;;;1.60;;
51214;SDS011;41093;47.444;19.134;2022-09-09T09:13:04;1.63;;;1.52;;
51214;SDS011;41093;47.444;19.134;2022-09-09T09:15:58;1.88;;;1.30;;
51214;SDS011;41093;47.444;19.134;2022-09-09T09:18:29;2.72;;;1.40;;
51214;SDS011;41093;47.444;19.134;2022-09-09T09:21:12;1.52;;;1.42;;
51214;SDS011;41093;47.444;19.134;2022-09-09T09:26:23;2.00;;;1.90;;
51214;SDS011;41093;47.444;19.134;2022-09-09T09:28:56;2.22;;;1.58;;
51214;SDS011;41093;47.444;19.134;2022-09-09T09:31:24;2.15;;;2.00;;
51214;SDS011;41093;47.444;19.134;2022-09-09T09:33:52;1.55;;;1.45;;
51214;SDS011;41093;47.444;19.134;2022-09-09T09:36:20;1.70;;;1.60;;
51214;SDS011;41093;47.444;19.134;2022-09-09T09:38:59;1.65;;;1.58;;
51214;SDS011;41093;47.444;19.134;2022-09-09T09:41:36;2.17;;;1.50;;
51214;SDS011;41093;47.444;19.134;2022-09-09T09:44:05;2.15;;;1.77;;
51214;SDS011;41093;47.444;19.134;2022-09-09T09:46:47;3.28;;;2.33;;
51214;SDS011;41093;47.444;19.134;2022-09-09T09:49:12;1.80;;;1.70;;
51214;SDS011;41093;47.444;19.134;2022-09-09T09:51:38;1.70;;;1.60;;
51214;SDS011;41093;47.444;19.134;2022-09-09T09:54:09;2.15;;;1.40;;
51214;SDS011;41093;47.444;19.134;2022-09-09T09:56:42;1.38;;;1.30;;
51214;SDS011;41093;47.444;19.134;2022-09-09T10:01:53;1.60;;;1.35;;
51214;SDS011;41093;47.444;19.134;2022-09-09T10:04:22;2.40;;;1.40;;
51214;SDS011;41093;47.444;19.134;2022-09-09T10:06:49;1.92;;;1.50;;
51214;SDS011;41093;47.444;19.134;2022-09-09T10:09:21;2.75;;;1.40;;
51214;SDS011;41093;47.444;19.134;2022-09-09T10:12:06;1.20;;;1.20;;
51214;SDS011;41093;47.444;19.134;2022-09-09T10:27:10;1.23;;;1.20;;
51214;SDS011;41093;47.444;19.134;2022-09-09T10:29:30;2.25;;;1.15;;
51214;SDS011;41093;47.444;19.134;2022-09-09T10:32:26;2.17;;;1.13;;
51214;SDS011;41093;47.444;19.134;2022-09-09T10:38:11;1.92;;;1.10;;
51214;SDS011;41093;47.444;19.134;2022-09-09T10:46:20;2.28;;;1.10;;
51214;SDS011;41093;47.444;19.134;2022-09-09T10:49:10;1.23;;;1.13;;
51214;SDS011;41093;47.444;19.134;2022-09-09T10:52:07;3.08;;;1.30;;
51214;SDS011;41093;47.444;19.134;2022-09-09T10:55:03;3.60;;;1.25;;
51214;SDS011;41093;47.444;19.134;2022-09-09T10:57:43;1.10;;;1.00;;
51214;SDS011;41093;47.444;19.134;2022-09-09T11:00:14;1.20;;;1.20;;
51214;SDS011;41093;47.444;19.134;2022-09-09T11:02:53;1.17;;;1.00;;
51214;SDS011;41093;47.444;19.134;2022-09-09T11:05:23;2.60;;;0.80;;
51214;SDS011;41093;47.444;19.134;2022-09-09T11:08:26;1.08;;;0.65;;
51214;SDS011;41093;47.444;19.134;2022-09-09T11:21:49;0.80;;;0.80;;
51214;SDS011;41093;47.444;19.134;2022-09-09T11:24:38;2.17;;;1.23;;
51214;SDS011;41093;47.444;19.134;2022-09-09T11:27:13;3.22;;;1.00;;
51214;SDS011;41093;47.444;19.134;2022-09-09T11:38:08;1.95;;;0.80;;
51214;SDS011;41093;47.444;19.134;2022-09-09T11:40:38;10.77;;;1.25;;
51214;SDS011;41093;47.444;19.134;2022-09-09T11:43:14;1.23;;;0.88;;
51214;SDS011;41093;47.444;19.134;2022-09-09T11:45:51;2.67;;;1.00;;
51214;SDS011;41093;47.444;19.134;2022-09-09T11:48:26;2.05;;;0.93;;
51214;SDS011;41093;47.444;19.134;2022-09-09T11:51:10;0.98;;;0.88;;
51214;SDS011;41093;47.444;19.134;2022-09-09T11:56:57;3.63;;;0.80;;
51214;SDS011;41093;47.444;19.134;2022-09-09T11:59:31;1.10;;;1.00;;
51214;SDS011;41093;47.444;19.134;2022-09-09T12:02:02;1.10;;;0.82;;
51214;SDS011;41093;47.444;19.134;2022-09-09T12:04:36;0.95;;;0.80;;
51214;SDS011;41093;47.444;19.134;2022-09-09T12:15:00;1.77;;;0.77;;
51214;SDS011;41093;47.444;19.134;2022-09-09T12:20:16;1.55;;;1.10;;
51214;SDS011;41093;47.444;19.134;2022-09-09T12:28:39;1.23;;;0.80;;
51214;SDS011;41093;47.444;19.134;2022-09-09T12:31:12;1.17;;;0.68;;
51214;SDS011;41093;47.444;19.134;2022-09-09T12:33:45;2.28;;;1.00;;
51214;SDS011;41093;47.444;19.134;2022-09-09T12:36:16;0.73;;;0.73;;
51214;SDS011;41093;47.444;19.134;2022-09-09T12:38:46;0.90;;;0.90;;
51214;SDS011;41093;47.444;19.134;2022-09-09T12:41:19;2.10;;;0.77;;
51214;SDS011;41093;47.444;19.134;2022-09-09T12:43:47;2.40;;;0.95;;
51214;SDS011;41093;47.444;19.134;2022-09-09T12:46:36;3.50;;;1.00;;
51214;SDS011;41093;47.444;19.134;2022-09-09T12:51:52;1.13;;;0.95;;
51214;SDS011;41093;47.444;19.134;2022-09-09T12:54:19;3.20;;;1.35;;
51214;SDS011;41093;47.444;19.134;2022-09-09T12:56:45;1.65;;;1.20;;
51214;SDS011;41093;47.444;19.134;2022-09-09T12:59:23;2.75;;;1.10;;
51214;SDS011;41093;47.444;19.134;2022-09-09T13:01:57;2.15;;;1.10;;
51214;SDS011;41093;47.444;19.134;2022-09-09T13:04:23;5.53;;;1.35;;
51214;SDS011;41093;47.444;19.134;2022-09-09T13:06:49;2.42;;;0.90;;
51214;SDS011;41093;47.444;19.134;2022-09-09T13:09:17;1.23;;;1.13;;
51214;SDS011;41093;47.444;19.134;2022-09-09T13:11:45;1.83;;;0.90;;
51214;SDS011;41093;47.444;19.134;2022-09-09T13:14:16;2.25;;;1.00;;
51214;SDS011;41093;47.444;19.134;2022-09-09T13:16:57;1.17;;;0.93;;
51214;SDS011;41093;47.444;19.134;2022-09-09T13:19:37;1.42;;;1.13;;
51214;SDS011;41093;47.444;19.134;2022-09-09T13:27:40;1.92;;;0.90;;
51214;SDS011;41093;47.444;19.134;2022-09-09T13:33:05;1.80;;;1.00;;
51214;SDS011;41093;47.444;19.134;2022-09-09T13:38:29;1.40;;;0.80;;
51214;SDS011;41093;47.444;19.134;2022-09-09T13:40:58;1.20;;;0.73;;
51214;SDS011;41093;47.444;19.134;2022-09-09T13:43:45;3.40;;;0.80;;
51214;SDS011;41093;47.444;19.134;2022-09-09T13:51:37;0.80;;;0.80;;
51214;SDS011;41093;47.444;19.134;2022-09-09T13:54:03;3.58;;;1.00;;
51214;SDS011;41093;47.444;19.134;2022-09-09T13:56:37;2.10;;;1.10;;
51214;SDS011;41093;47.444;19.134;2022-09-09T13:59:04;4.57;;;1.00;;
51214;SDS011;41093;47.444;19.134;2022-09-09T14:01:31;2.17;;;0.88;;
51214;SDS011;41093;47.444;19.134;2022-09-09T14:03:59;0.90;;;0.90;;
51214;SDS011;41093;47.444;19.134;2022-09-09T14:06:25;1.00;;;0.80;;
51214;SDS011;41093;47.444;19.134;2022-09-09T14:08:52;1.17;;;0.80;;
51214;SDS011;41093;47.444;19.134;2022-09-09T14:11:19;9.38;;;1.40;;
51214;SDS011;41093;47.444;19.134;2022-09-09T14:13:46;1.15;;;0.80;;
51214;SDS011;41093;47.444;19.134;2022-09-09T14:16:15;0.80;;;0.80;;
51214;SDS011;41093;47.444;19.134;2022-09-09T14:18:42;1.95;;;0.93;;
51214;SDS011;41093;47.444;19.134;2022-09-09T14:21:11;1.38;;;0.77;;
51214;SDS011;41093;47.444;19.134;2022-09-09T14:23:37;1.25;;;0.80;;
51214;SDS011;41093;47.444;19.134;2022-09-09T14:26:06;1.38;;;0.77;;
51214;SDS011;41093;47.444;19.134;2022-09-09T14:28:33;0.88;;;0.70;;
51214;SDS011;41093;47.444;19.134;2022-09-09T14:31:00;1.08;;;0.90;;
51214;SDS011;41093;47.444;19.134;2022-09-09T14:33:27;1.98;;;0.70;;
51214;SDS011;41093;47.444;19.134;2022-09-09T14:35:58;0.95;;;0.90;;
51214;SDS011;41093;47.444;19.134;2022-09-09T14:38:28;1.00;;;0.90;;
51214;SDS011;41093;47.444;19.134;2022-09-09T14:40:55;0.98;;;0.60;;
51214;SDS011;41093;47.444;19.134;2022-09-09T14:43:21;2.15;;;0.80;;
51214;SDS011;41093;47.444;19.134;2022-09-09T14:45:47;1.95;;;1.08;;
51214;SDS011;41093;47.444;19.134;2022-09-09T14:48:13;2.17;;;0.90;;
51214;SDS011;41093;47.444;19.134;2022-09-09T14:50:40;1.48;;;0.82;;
51214;SDS011;41093;47.444;19.134;2022-09-09T14:53:07;1.80;;;0.73;;
51214;SDS011;41093;47.444;19.134;2022-09-09T14:55:33;1.50;;;0.70;;
51214;SDS011;41093;47.444;19.134;2022-09-09T14:58:00;2.58;;;1.00;;
51214;SDS011;41093;47.444;19.134;2022-09-09T15:00:26;2.97;;;0.82;;
51214;SDS011;41093;47.444;19.134;2022-09-09T15:02:55;2.88;;;0.75;;
51214;SDS011;41093;47.444;19.134;2022-09-09T15:05:21;1.40;;;0.98;;
51214;SDS011;41093;47.444;19.134;2022-09-09T15:07:47;0.70;;;0.70;;
51214;SDS011;41093;47.444;19.134;2022-09-09T15:10:13;0.75;;;0.73;;
51214;SDS011;41093;47.444;19.134;2022-09-09T15:12:39;1.35;;;0.80;;
51214;SDS011;41093;47.444;19.134;2022-09-09T15:15:07;0.60;;;0.60;;
51214;SDS011;41093;47.444;19.134;2022-09-09T15:17:34;1.35;;;0.70;;
51214;SDS011;41093;47.444;19.134;2022-09-09T15:20:02;1.40;;;1.00;;
51214;SDS011;41093;47.444;19.134;2022-09-09T15:22:30;0.85;;;0.80;;
51214;SDS011;41093;47.444;19.134;2022-09-09T15:24:56;1.45;;;0.90;;
51214;SDS011;41093;47.444;19.134;2022-09-09T15:27:22;2.33;;;0.95;;
51214;SDS011;41093;47.444;19.134;2022-09-09T15:29:49;2.05;;;0.80;;
51214;SDS011;41093;47.444;19.134;2022-09-09T15:32:16;1.95;;;0.88;;
51214;SDS011;41093;47.444;19.134;2022-09-09T15:34:42;1.10;;;0.70;;
51214;SDS011;41093;47.444;19.134;2022-09-09T15:37:11;0.70;;;0.70;;
51214;SDS011;41093;47.444;19.134;2022-09-09T15:39:38;0.65;;;0.65;;
51214;SDS011;41093;47.444;19.134;2022-09-09T15:42:06;1.35;;;0.70;;
51214;SDS011;41093;47.444;19.134;2022-09-09T15:44:42;1.95;;;0.70;;
51214;SDS011;41093;47.444;19.134;2022-09-09T15:47:10;0.85;;;0.80;;
51214;SDS011;41093;47.444;19.134;2022-09-09T15:49:38;2.95;;;1.00;;
51214;SDS011;41093;47.444;19.134;2022-09-09T15:52:04;2.92;;;0.93;;
51214;SDS011;41093;47.444;19.134;2022-09-09T15:54:31;3.38;;;1.02;;
51214;SDS011;41093;47.444;19.134;2022-09-09T15:57:01;2.03;;;0.95;;
51214;SDS011;41093;47.444;19.134;2022-09-09T15:59:29;7.30;;;1.35;;
51214;SDS011;41093;47.444;19.134;2022-09-09T16:01:56;1.85;;;0.88;;
51214;SDS011;41093;47.444;19.134;2022-09-09T16:04:23;1.65;;;0.90;;
51214;SDS011;41093;47.444;19.134;2022-09-09T16:06:56;0.98;;;0.98;;
51214;SDS011;41093;47.444;19.134;2022-09-09T16:09:28;2.38;;;0.90;;
51214;SDS011;41093;47.444;19.134;2022-09-09T16:11:58;1.08;;;0.95;;
51214;SDS011;41093;47.444;19.134;2022-09-09T16:14:32;1.33;;;1.10;;
51214;SDS011;41093;47.444;19.134;2022-09-09T16:17:01;1.10;;;0.82;;
51214;SDS011;41093;47.444;19.134;2022-09-09T16:19:32;1.80;;;1.23;;
51214;SDS011;41093;47.444;19.134;2022-09-09T16:21:59;2.15;;;1.10;;
51214;SDS011;41093;47.444;19.134;2022-09-09T16:24:26;1.25;;;0.80;;
51214;SDS011;41093;47.444;19.134;2022-09-09T16:26:53;2.58;;;1.00;;
51214;SDS011;41093;47.444;19.134;2022-09-09T16:29:22;3.33;;;1.20;;
51214;SDS011;41093;47.444;19.134;2022-09-09T16:31:49;1.25;;;1.00;;
51214;SDS011;41093;47.444;19.134;2022-09-09T16:34:15;2.10;;;1.30;;
51214;SDS011;41093;47.444;19.134;2022-09-09T16:36:42;1.55;;;1.20;;
51214;SDS011;41093;47.444;19.134;2022-09-09T16:39:10;5.55;;;1.60;;
51214;SDS011;41093;47.444;19.134;2022-09-09T16:41:38;5.18;;;1.75;;
51214;SDS011;41093;47.444;19.134;2022-09-09T16:44:06;4.15;;;1.30;;
51214;SDS011;41093;47.444;19.134;2022-09-09T16:46:35;3.13;;;1.40;;
51214;SDS011;41093;47.444;19.134;2022-09-09T16:49:06;2.42;;;1.15;;
51214;SDS011;41093;47.444;19.134;2022-09-09T16:51:37;2.30;;;1.23;;
51214;SDS011;41093;47.444;19.134;2022-09-09T16:54:06;3.45;;;1.77;;
51214;SDS011;41093;47.444;19.134;2022-09-09T16:56:36;2.72;;;1.35;;
51214;SDS011;41093;47.444;19.134;2022-09-09T16:59:07;1.40;;;1.30;;
51214;SDS011;41093;47.444;19.134;2022-09-09T17:01:36;3.38;;;1.60;;
51214;SDS011;41093;47.444;19.134;2022-09-09T17:04:04;1.85;;;1.60;;
51214;SDS011;41093;47.444;19.134;2022-09-09T17:06:38;1.38;;;1.35;;
51214;SDS011;41093;47.444;19.134;2022-09-09T17:09:07;2.75;;;1.60;;
51214;SDS011;41093;47.444;19.134;2022-09-09T17:11:35;2.58;;;2.03;;
51214;SDS011;41093;47.444;19.134;2022-09-09T17:14:03;6.47;;;2.88;;
51214;SDS011;41093;47.444;19.134;2022-09-09T17:16:30;7.10;;;3.15;;
51214;SDS011;41093;47.444;19.134;2022-09-09T17:18:59;4.32;;;3.22;;
51214;SDS011;41093;47.444;19.134;2022-09-09T17:21:27;7.65;;;3.97;;
51214;SDS011;41093;47.444;19.134;2022-09-09T17:23:54;5.15;;;2.80;;
51214;SDS011;41093;47.444;19.134;2022-09-09T17:26:22;2.78;;;2.33;;
51214;SDS011;41093;47.444;19.134;2022-09-09T17:28:52;5.95;;;2.65;;
51214;SDS011;41093;47.444;19.134;2022-09-09T17:31:18;4.78;;;3.13;;
51214;SDS011;41093;47.444;19.134;2022-09-09T17:33:48;4.22;;;2.92;;
51214;SDS011;41093;47.444;19.134;2022-09-09T17:36:17;5.03;;;3.05;;
51214;SDS011;41093;47.444;19.134;2022-09-09T17:38:48;4.72;;;3.10;;
51214;SDS011;41093;47.444;19.134;2022-09-09T17:41:15;4.63;;;3.35;;